Time;durP1;ratioP1;P1;durP2;ratioP2;P2;SDS_P1;SDS_P2;PMS_P1;PMS_P2;Temp;Humidity;BMP_temperature;BMP_pressure;BME280_temperature;BME280_humidity;BME280_pressure;Samples;Min_cycle;Max_cycle;Signal;HPM_P1;HPM_P2
2021/12/16 00:02:34;;;;;;;;;44.25;38.25;;;;;-147.17;100.00;50174.72;4960157;28;51740;-60
2021/12/16 00:05:20;;;;;;;;;38.50;35.75;;;;;-147.17;100.00;50190.47;4960231;28;52817;-60
2021/12/16 00:07:58;;;;;;;;;46.75;40.25;;;;;-147.17;100.00;50192.44;4962477;28;52874;-60
2021/12/16 00:10:34;;;;;;;;;41.25;37.50;;;;;-147.17;100.00;50190.47;4961264;28;51336;-58
2021/12/16 00:34:54;;;;;;;;;39.00;36.00;;;;;-147.17;100.00;50162.91;4964061;28;51616;-60
2021/12/16 00:37:20;;;;;;;;;41.00;34.25;;;;;-147.17;100.00;50218.03;4964011;28;51574;-61
2021/12/16 00:39:46;;;;;;;;;37.25;34.00;;;;;-147.17;100.00;50214.09;4967036;28;51745;-61
2021/12/16 00:42:43;;;;;;;;;39.00;35.50;;;;;-147.17;100.00;50208.19;5484671;22;52822;-60
2021/12/16 00:45:09;;;;;;;;;41.50;36.00;;;;;-147.17;100.00;50208.19;4964154;28;51380;-61
2021/12/16 00:47:55;;;;;;;;;39.75;36.00;;;;;-147.17;100.00;50223.94;4965132;28;51339;-61
2021/12/16 00:55:51;;;;;;;;;38.50;34.25;;;;;-147.17;100.00;50212.13;4965350;28;51367;-61
2021/12/16 00:58:22;;;;;;;;;36.50;33.75;;;;;-147.17;100.00;50223.94;4966285;28;51270;-61
2021/12/16 01:01:00;;;;;;;;;34.50;32.25;;;;;-147.17;100.00;50210.16;4963422;28;52002;-61
2021/12/16 01:03:34;;;;;;;;;36.00;32.50;;;;;-147.17;100.00;50237.72;4966071;28;53026;-61
2021/12/16 01:06:29;;;;;;;;;40.25;33.75;;;;;-147.17;100.00;50227.88;4961347;28;54056;-62
2021/12/16 01:09:20;;;;;;;;;32.50;30.00;;;;;-147.17;100.00;50237.72;4964110;28;51382;-62
2021/12/16 01:55:07;;;;;;;;;24.25;23.50;;;;;-147.17;100.00;50253.47;4966670;28;51665;-61
2021/12/16 01:57:48;;;;;;;;;31.50;27.50;;;;;-147.17;100.00;50269.22;5229450;22;51378;-53
2021/12/16 02:00:27;;;;;;;;;35.75;32.25;;;;;-147.17;100.00;50237.72;4967956;28;51042;-54
2021/12/16 02:02:59;;;;;;;;;37.50;35.00;;;;;-147.17;100.00;50253.47;4967932;28;51443;-52
2021/12/16 02:10:40;;;;;;;;;30.75;27.25;;;;;-147.17;100.00;50296.78;4968104;28;51216;-62
2021/12/16 02:13:39;;;;;;;;;27.00;26.75;;;;;-147.17;100.00;50263.31;4965296;28;51267;-62
2021/12/16 02:37:36;;;;;;;;;37.00;34.00;;;;;-147.17;100.00;50186.53;4954732;28;51578;-71
2021/12/16 02:40:07;;;;;;;;;26.50;25.75;;;;;-147.17;100.00;50186.53;4953062;28;51189;-74
2021/12/16 02:42:39;;;;;;;;;32.75;30.75;;;;;-147.17;100.00;50145.19;4952960;28;51097;-75
2021/12/16 02:50:37;;;;;;;;;30.00;27.50;;;;;-147.17;100.00;50194.41;4948560;28;51166;-76
2021/12/16 02:53:03;;;;;;;;;27.25;25.50;;;;;-147.17;100.00;50212.13;4949810;28;51696;-74
2021/12/16 02:55:30;;;;;;;;;31.50;28.75;;;;;-147.17;100.00;50196.38;4956940;28;50949;-71
2021/12/16 02:58:01;;;;;;;;;27.00;25.25;;;;;-147.17;100.00;50196.38;4956859;28;52117;-73
2021/12/16 03:00:33;;;;;;;;;20.00;18.00;;;;;-147.17;100.00;50184.56;4965584;28;51280;-78
2021/12/16 03:02:59;;;;;;;;;26.75;23.00;;;;;-147.17;100.00;50192.44;4952420;28;51334;-77
2021/12/16 03:05:25;;;;;;;;;19.25;18.75;;;;;-147.17;100.00;50210.16;4957338;28;51139;-78
2021/12/16 03:07:52;;;;;;;;;21.25;18.00;;;;;-147.17;100.00;50204.25;4955301;28;52228;-67
2021/12/16 03:20:55;;;;;;;;;28.25;25.50;;;;;-147.17;100.00;50174.72;4952909;28;51114;-72
2021/12/16 03:26:19;;;;;;;;;35.00;33.75;;;;;-147.17;100.00;50170.78;4951609;28;51355;-72
2021/12/16 03:37:18;;;;;;;;;36.50;34.00;;;;;-147.17;100.00;50092.03;4951845;28;51311;-73
2021/12/16 03:39:56;;;;;;;;;35.00;32.75;;;;;-147.17;100.00;50155.03;4954104;28;51032;-73
2021/12/16 03:42:26;;;;;;;;;39.50;34.75;;;;;-147.17;100.00;50139.28;4952045;28;50969;-73
2021/12/16 03:44:58;;;;;;;;;34.25;32.50;;;;;-147.17;100.00;50155.03;4952796;28;51064;-73
2021/12/16 03:47:47;;;;;;;;;35.75;33.00;;;;;-147.17;100.00;50164.88;4952867;28;51478;-73
2021/12/16 03:50:19;;;;;;;;;34.50;32.50;;;;;-147.17;100.00;50172.75;4952671;28;51990;-73
2021/12/16 03:52:47;;;;;;;;;41.50;36.00;;;;;-147.17;100.00;50141.25;4957363;28;51301;-73
2021/12/16 03:55:15;;;;;;;;;32.25;30.50;;;;;-147.17;100.00;50127.47;4951739;28;51303;-73
2021/12/16 03:57:41;;;;;;;;;40.25;36.25;;;;;-147.17;100.00;50168.81;4950893;28;51329;-73
2021/12/16 04:00:14;;;;;;;;;35.25;33.00;;;;;-147.17;100.00;50149.13;4953392;28;52862;-73
2021/12/16 04:02:40;;;;;;;;;42.00;38.00;;;;;-147.17;100.00;50155.03;4968117;28;51198;-73
2021/12/16 04:05:08;;;;;;;;;42.25;37.25;;;;;-147.17;100.00;50139.28;4953330;28;51800;-73
2021/12/16 04:07:37;;;;;;;;;35.75;33.00;;;;;-147.17;100.00;50147.16;4932983;28;51298;-73
2021/12/16 04:10:07;;;;;;;;;45.00;38.00;;;;;-147.17;100.00;50147.16;4966598;28;52001;-74
2021/12/16 04:12:33;;;;;;;;;41.00;38.00;;;;;-147.17;100.00;50139.28;4956248;28;51094;-73
2021/12/16 04:15:00;;;;;;;;;45.50;38.75;;;;;-147.17;100.00;50160.94;4954610;28;51226;-73
2021/12/16 04:17:28;;;;;;;;;44.75;40.00;;;;;-147.17;100.00;50143.22;4957059;28;51132;-72
2021/12/16 04:19:54;;;;;;;;;47.50;39.25;;;;;-147.17;100.00;50139.28;4956477;28;52591;-72
2021/12/16 04:22:30;;;;;;;;;47.50;39.50;;;;;-147.17;100.00;50147.16;4956380;28;51218;-73
2021/12/16 04:24:57;;;;;;;;;40.25;36.50;;;;;-147.17;100.00;50160.94;4956143;28;51443;-72
2021/12/16 04:27:23;;;;;;;;;40.25;36.75;;;;;-147.17;100.00;50164.88;4956683;28;52559;-75
2021/12/16 04:29:49;;;;;;;;;41.75;36.75;;;;;-147.17;100.00;50123.53;4955838;28;51810;-74
2021/12/16 04:32:15;;;;;;;;;37.50;33.75;;;;;-147.17;100.00;50194.41;4955574;28;51058;-74
2021/12/16 04:34:41;;;;;;;;;43.25;38.00;;;;;-147.17;100.00;50155.03;4952652;28;51089;-75
2021/12/16 04:37:07;;;;;;;;;42.25;37.00;;;;;-147.17;100.00;50147.16;4955532;28;50991;-74
2021/12/16 04:39:35;;;;;;;;;36.50;33.25;;;;;-147.17;100.00;50162.91;4956303;28;52518;-74
2021/12/16 04:42:03;;;;;;;;;34.00;30.25;;;;;-147.17;100.00;50166.84;4959646;28;50954;-74
2021/12/16 04:44:28;;;;;;;;;44.00;35.75;;;;;-147.17;100.00;50180.63;4956205;28;50973;-74
2021/12/16 04:46:57;;;;;;;;;34.00;31.25;;;;;-147.17;100.00;50178.66;4955586;28;51276;-73
2021/12/16 04:49:23;;;;;;;;;37.75;34.25;;;;;-147.17;100.00;50186.53;4955872;28;53078;-73
2021/12/16 04:51:53;;;;;;;;;34.25;33.50;;;;;-147.17;100.00;50194.41;4955139;28;51281;-73
2021/12/16 04:54:19;;;;;;;;;34.75;28.25;;;;;-147.17;100.00;50204.25;4955470;28;51025;-73
2021/12/16 04:56:46;;;;;;;;;33.75;29.50;;;;;-147.17;100.00;50174.72;4955643;28;51305;-74
2021/12/16 04:59:16;;;;;;;;;29.25;27.25;;;;;-147.17;100.00;50198.34;4956383;28;51962;-74
2021/12/16 05:01:46;;;;;;;;;36.00;31.75;;;;;-147.17;100.00;50216.06;4952827;28;51085;-73
2021/12/16 05:04:12;;;;;;;;;28.75;26.75;;;;;-147.17;100.00;50220.00;4954560;28;51304;-73
2021/12/16 05:06:38;;;;;;;;;19.50;18.75;;;;;-147.17;100.00;50218.03;4954764;28;51566;-73
2021/12/16 05:09:07;;;;;;;;;32.25;27.75;;;;;-147.17;100.00;50194.41;4955463;28;51192;-73
2021/12/16 05:11:35;;;;;;;;;40.25;34.25;;;;;-147.17;100.00;50176.69;4954793;28;51035;-74
2021/12/16 05:14:06;;;;;;;;;35.75;32.50;;;;;-147.17;100.00;50196.38;4955833;28;51154;-73
2021/12/16 05:16:31;;;;;;;;;32.00;31.25;;;;;-147.17;100.00;50223.94;4958611;28;51197;-73
2021/12/16 05:18:57;;;;;;;;;31.25;29.25;;;;;-147.17;100.00;50206.22;4955836;28;51701;-73
2021/12/16 05:24:26;;;;;;;;;31.25;29.50;;;;;-147.17;100.00;50214.09;4955815;28;51084;-73
2021/12/16 05:26:57;;;;;;;;;26.75;26.75;;;;;-147.17;100.00;50220.00;4955305;28;51231;-74
2021/12/16 05:29:24;;;;;;;;;28.00;27.25;;;;;-147.17;100.00;50164.88;4958236;28;54202;-73
2021/12/16 05:31:50;;;;;;;;;34.00;31.75;;;;;-147.17;100.00;50204.25;4954402;28;51019;-74
2021/12/16 05:34:15;;;;;;;;;40.25;34.25;;;;;-147.17;100.00;50168.81;4959124;28;51255;-74
2021/12/16 05:36:41;;;;;;;;;33.75;32.50;;;;;-147.17;100.00;50196.38;4955193;28;51072;-73
2021/12/16 05:39:08;;;;;;;;;36.25;31.50;;;;;-147.17;100.00;50200.31;4956395;28;51647;-74
2021/12/16 05:41:33;;;;;;;;;39.50;36.00;;;;;-147.17;100.00;50210.16;4947677;28;51036;-73
2021/12/16 05:43:59;;;;;;;;;43.25;36.00;;;;;-147.17;100.00;50206.22;4954768;28;51179;-73
2021/12/16 05:46:26;;;;;;;;;36.50;35.25;;;;;-147.17;100.00;50202.28;4954853;28;51355;-73
2021/12/16 05:48:54;;;;;;;;;34.75;33.75;;;;;-147.17;100.00;50204.25;4953685;28;54070;-73
2021/12/16 05:51:42;;;;;;;;;38.25;34.00;;;;;-147.17;100.00;50145.19;4956636;28;51242;-73
2021/12/16 05:54:09;;;;;;;;;44.25;37.25;;;;;-147.17;100.00;50180.63;4954705;28;51131;-73
2021/12/16 05:56:36;;;;;;;;;43.75;36.25;;;;;-147.17;100.00;50182.59;4955000;28;51078;-73
2021/12/16 05:59:04;;;;;;;;;44.75;36.75;;;;;-147.17;100.00;50194.41;4954824;28;52237;-73
2021/12/16 06:01:34;;;;;;;;;44.25;37.25;;;;;-147.17;100.00;50198.34;4952494;28;51241;-73
2021/12/16 06:04:01;;;;;;;;;44.75;38.75;;;;;-147.17;100.00;50164.88;4954718;28;51117;-74
2021/12/16 06:06:27;;;;;;;;;46.75;39.25;;;;;-147.17;100.00;50212.13;4954398;28;50940;-73
2021/12/16 06:08:55;;;;;;;;;43.75;37.75;;;;;-147.17;100.00;50194.41;4965384;28;51699;-73
2021/12/16 06:11:25;;;;;;;;;38.25;36.00;;;;;-147.17;100.00;50186.53;4953578;28;51456;-74
2021/12/16 06:27:33;;;;;;;;;39.25;36.00;;;;;-147.17;100.00;50182.59;4954848;28;51098;-73
2021/12/16 06:29:59;;;;;;;;;43.75;37.50;;;;;-147.17;100.00;50155.03;4952842;28;52895;-72
2021/12/16 06:32:25;;;;;;;;;39.50;36.00;;;;;-147.17;100.00;50212.13;4953615;28;51285;-74
2021/12/16 06:34:52;;;;;;;;;40.75;36.00;;;;;-147.17;100.00;50208.19;4953335;28;52764;-72
2021/12/16 06:37:18;;;;;;;;;39.25;36.50;;;;;-147.17;100.00;50202.28;4964926;28;51380;-71
2021/12/16 06:39:43;;;;;;;;;39.75;36.00;;;;;-147.17;100.00;50162.91;4954328;28;51808;-73
2021/12/16 06:42:10;;;;;;;;;35.50;33.75;;;;;-147.17;100.00;50188.50;4953417;28;51786;-69
2021/12/16 06:44:43;;;;;;;;;38.75;35.50;;;;;-147.17;100.00;50200.31;4954210;28;51059;-70
2021/12/16 06:47:14;;;;;;;;;44.25;36.75;;;;;-147.17;100.00;50168.81;4952147;28;51143;-71
2021/12/16 06:49:42;;;;;;;;;41.75;36.25;;;;;-147.17;100.00;50157.00;4953385;28;52106;-71
2021/12/16 06:52:11;;;;;;;;;40.75;34.00;;;;;-147.17;100.00;50176.69;4953540;28;51153;-71
2021/12/16 06:54:52;;;;;;;;;33.75;32.75;;;;;-147.17;100.00;50186.53;4954153;28;51059;-70
2021/12/16 06:57:24;;;;;;;;;36.00;32.50;;;;;-147.17;100.00;50178.66;4953894;28;51122;-71
2021/12/16 07:00:15;;;;;;;;;33.50;32.25;;;;;-147.17;100.00;50188.50;4953518;28;52686;-71
2021/12/16 07:05:07;;;;;;;;;36.00;34.00;;;;;-147.17;100.00;50137.31;4954192;28;51142;-71
2021/12/16 07:07:33;;;;;;;;;34.50;33.75;;;;;-147.17;100.00;50172.75;4953494;28;50973;-71
2021/12/16 07:09:58;;;;;;;;;36.00;33.00;;;;;-147.17;100.00;50180.63;4965629;28;52145;-70
2021/12/16 07:12:35;;;;;;;;;39.00;34.00;;;;;-147.17;100.00;50170.78;4953895;28;51345;-69
2021/12/16 07:15:02;;;;;;;;;37.50;34.00;;;;;-147.17;100.00;50178.66;4960211;28;51057;-69
2021/12/16 07:17:27;;;;;;;;;29.75;29.25;;;;;-147.17;100.00;50172.75;4952803;28;51377;-69
2021/12/16 07:19:52;;;;;;;;;35.75;33.75;;;;;-147.17;100.00;50194.41;4953342;28;51088;-73
2021/12/16 07:22:18;;;;;;;;;39.75;35.25;;;;;-147.17;100.00;50202.28;4953394;28;51032;-70
2021/12/16 07:24:44;;;;;;;;;45.75;37.75;;;;;-147.17;100.00;50158.97;4953132;28;51318;-72
2021/12/16 07:27:10;;;;;;;;;40.50;34.00;;;;;-147.17;100.00;50184.56;4950557;28;50934;-73
2021/12/16 07:29:36;;;;;;;;;46.75;40.75;;;;;-147.17;100.00;50131.41;4951355;28;51714;-73
2021/12/16 07:32:02;;;;;;;;;34.50;33.00;;;;;-147.17;100.00;50166.84;4962394;28;51125;-72
2021/12/16 07:34:28;;;;;;;;;32.50;32.50;;;;;-147.17;100.00;50180.63;4953255;28;51106;-69
2021/12/16 07:36:54;;;;;;;;;39.25;34.75;;;;;-147.17;100.00;50164.88;4953122;28;51206;-73
2021/12/16 07:39:29;;;;;;;;;36.25;33.75;;;;;-147.17;100.00;50178.66;4952478;28;51945;-68
2021/12/16 07:41:56;;;;;;;;;35.75;33.75;;;;;-147.17;100.00;50210.16;4953312;28;51178;-68
2021/12/16 07:44:21;;;;;;;;;40.50;36.75;;;;;-147.17;100.00;50182.59;4947414;28;51396;-68
2021/12/16 07:46:56;;;;;;;;;34.25;31.00;;;;;-147.17;100.00;50164.88;4950805;28;51109;-65
2021/12/16 07:49:27;;;;;;;;;36.50;33.50;;;;;-147.17;100.00;50176.69;4959785;28;52888;-66
2021/12/16 07:51:55;;;;;;;;;33.75;32.25;;;;;-147.17;100.00;50192.44;4952599;28;50991;-65
2021/12/16 07:54:22;;;;;;;;;38.25;35.75;;;;;-147.17;100.00;50202.28;4952703;28;51118;-66
2021/12/16 07:56:50;;;;;;;;;37.50;35.25;;;;;-147.17;100.00;50190.47;4952927;28;51255;-65
2021/12/16 07:59:16;;;;;;;;;39.00;34.00;;;;;-147.17;100.00;50155.03;4951678;28;51039;-66
2021/12/16 08:01:43;;;;;;;;;36.00;34.00;;;;;-147.17;100.00;50210.16;4949234;28;52027;-61
2021/12/16 08:04:17;;;;;;;;;37.00;34.75;;;;;-147.17;100.00;50155.03;4953549;28;51231;-60
2021/12/16 08:06:43;;;;;;;;;43.00;36.50;;;;;-147.17;100.00;50182.59;4947331;28;51371;-61
2021/12/16 08:09:09;;;;;;;;;28.00;24.75;;;;;-147.17;100.00;50153.06;4943584;28;51700;-62
2021/12/16 08:11:37;;;;;;;;;34.75;33.75;;;;;-147.17;100.00;50145.19;4958557;28;51896;-63
2021/12/16 08:14:03;;;;;;;;;37.00;33.50;;;;;-147.17;100.00;50178.66;4953116;28;51019;-61
2021/12/16 08:16:30;;;;;;;;;35.75;33.25;;;;;-147.17;100.00;50212.13;4950679;28;51380;-61
2021/12/16 08:18:56;;;;;;;;;37.75;34.25;;;;;-147.17;100.00;50208.19;4951524;28;51086;-63
2021/12/16 08:21:27;;;;;;;;;36.25;33.50;;;;;-147.17;100.00;50229.84;4952233;28;50952;-61
2021/12/16 08:23:53;;;;;;;;;34.50;32.50;;;;;-147.17;100.00;50229.84;4951954;28;51100;-61
2021/12/16 08:26:19;;;;;;;;;38.00;34.50;;;;;-147.17;100.00;50206.22;4953098;28;50988;-61
2021/12/16 08:28:44;;;;;;;;;32.75;28.50;;;;;-147.17;100.00;50186.53;4953648;28;51982;-61
2021/12/16 08:31:11;;;;;;;;;27.50;26.25;;;;;-147.17;100.00;50166.84;4957173;28;51297;-61
2021/12/16 08:33:38;;;;;;;;;35.25;33.25;;;;;-147.17;100.00;50166.84;4960662;28;51039;-61
2021/12/16 08:36:30;;;;;;;;;36.75;34.75;;;;;-147.17;100.00;50174.72;4953138;28;51365;-66
2021/12/16 08:38:56;;;;;;;;;38.75;35.50;;;;;-147.17;100.00;50210.16;4935861;28;54574;-62
2021/12/16 08:41:30;;;;;;;;;35.00;34.00;;;;;-147.17;100.00;50206.22;4951550;28;51281;-62
2021/12/16 08:43:55;;;;;;;;;33.50;31.25;;;;;-147.17;100.00;50174.72;4952081;28;51003;-62
2021/12/16 08:46:23;;;;;;;;;39.00;35.75;;;;;-147.17;100.00;50162.91;4952719;28;51085;-62
2021/12/16 08:48:50;;;;;;;;;35.25;33.50;;;;;-147.17;100.00;50182.59;4938149;28;52921;-62
2021/12/16 08:51:21;;;;;;;;;35.50;32.75;;;;;-147.17;100.00;50200.31;4949330;28;51038;-62
2021/12/16 08:53:47;;;;;;;;;34.75;33.00;;;;;-147.17;100.00;50200.31;4955710;28;51056;-62
2021/12/16 08:56:13;;;;;;;;;30.50;27.50;;;;;-147.17;100.00;50210.16;4956164;28;51384;-62
2021/12/16 08:58:40;;;;;;;;;36.50;34.50;;;;;-147.17;100.00;50206.22;4955576;28;51107;-63
2021/12/16 09:01:10;;;;;;;;;33.25;32.50;;;;;-147.17;100.00;50212.13;4955932;28;51080;-62
2021/12/16 09:03:36;;;;;;;;;31.25;29.75;;;;;-147.17;100.00;50245.59;4955575;28;50959;-62
2021/12/16 09:06:04;;;;;;;;;34.00;32.00;;;;;-147.17;100.00;50220.00;4956135;28;51281;-62
2021/12/16 09:08:30;;;;;;;;;32.50;30.25;;;;;-147.17;100.00;50214.09;4959711;28;52779;-61
2021/12/16 09:10:56;;;;;;;;;40.75;36.25;;;;;-147.17;100.00;50239.69;4955232;28;51236;-61
2021/12/16 09:13:21;;;;;;;;;37.00;33.50;;;;;-147.17;100.00;50214.09;4955856;28;51115;-61
2021/12/16 09:16:00;;;;;;;;;35.00;34.00;;;;;-147.17;100.00;50194.41;4956037;28;51208;-62
2021/12/16 09:18:30;;;;;;;;;30.00;28.25;;;;;-147.17;100.00;50235.75;4954015;28;50973;-62
2021/12/16 09:20:58;;;;;;;;;32.50;30.75;;;;;-147.17;100.00;50227.88;4955708;28;51134;-61
2021/12/16 09:23:24;;;;;;;;;31.25;30.25;;;;;-147.17;100.00;50218.03;4954276;28;50937;-61
2021/12/16 09:25:50;;;;;;;;;31.00;30.00;;;;;-147.17;100.00;50277.09;4955707;28;51329;-61
2021/12/16 09:28:19;;;;;;;;;31.00;28.25;;;;;-147.17;100.00;50227.88;4954785;28;50889;-61
2021/12/16 09:30:45;;;;;;;;;30.75;29.00;;;;;-147.17;100.00;50233.78;4955423;28;51156;-61
2021/12/16 09:33:16;;;;;;;;;38.50;34.50;;;;;-147.17;100.00;50243.63;4954530;28;51048;-60
2021/12/16 09:35:45;;;;;;;;;33.50;32.25;;;;;-147.17;100.00;50245.59;4954336;28;51536;-62
2021/12/16 09:38:12;;;;;;;;;29.25;28.25;;;;;-147.17;100.00;50225.91;4955286;28;51622;-61
2021/12/16 09:40:47;;;;;;;;;33.00;28.50;;;;;-147.17;100.00;50273.16;4955072;28;51066;-61
2021/12/16 09:43:13;;;;;;;;;31.50;29.00;;;;;-147.17;100.00;50247.56;4954619;28;51806;-62
2021/12/16 09:45:39;;;;;;;;;33.25;29.50;;;;;-147.17;100.00;50253.47;4954593;28;51313;-62
2021/12/16 09:48:04;;;;;;;;;38.25;35.50;;;;;-147.17;100.00;50247.56;4954359;28;51287;-62
2021/12/16 09:50:31;;;;;;;;;34.75;33.25;;;;;-147.17;100.00;50243.63;4953669;28;50946;-61
2021/12/16 09:52:57;;;;;;;;;37.00;34.50;;;;;-147.17;100.00;50210.16;4955097;28;51010;-62
2021/12/16 09:55:23;;;;;;;;;39.75;36.25;;;;;-147.17;100.00;50243.63;4954521;28;50862;-61
2021/12/16 09:57:50;;;;;;;;;41.00;36.50;;;;;-147.17;100.00;50233.78;4953653;28;53306;-61
2021/12/16 10:00:22;;;;;;;;;44.25;37.50;;;;;-147.17;100.00;50220.00;4953527;28;51160;-62
2021/12/16 10:02:48;;;;;;;;;42.00;36.00;;;;;-147.17;100.00;50227.88;4954758;28;51361;-62
2021/12/16 10:05:13;;;;;;;;;28.25;28.00;;;;;-147.17;100.00;50241.66;4954187;28;50860;-63
2021/12/16 10:07:39;;;;;;;;;40.75;36.75;;;;;-147.17;100.00;50273.16;4954539;28;50915;-62
2021/12/16 10:10:12;;;;;;;;;37.25;35.25;;;;;-147.17;100.00;50229.84;4953320;28;51213;-62
2021/12/16 10:12:41;;;;;;;;;39.00;34.75;;;;;-147.17;100.00;50221.97;4954965;28;51072;-62
2021/12/16 10:17:55;;;;;;;;;37.50;35.00;;;;;-147.17;100.00;50253.47;4953793;28;51016;-62
2021/12/16 10:20:27;;;;;;;;;39.00;35.50;;;;;-147.17;100.00;50257.41;4953781;28;50990;-61
2021/12/16 10:23:03;;;;;;;;;42.00;34.50;;;;;-147.17;100.00;50273.16;4954453;28;50994;-61
2021/12/16 10:25:33;;;;;;;;;40.50;36.50;;;;;-147.17;100.00;50249.53;4954527;28;51153;-62
2021/12/16 10:28:23;;;;;;;;;37.75;34.75;;;;;-147.17;100.00;50210.16;4953703;28;52660;-62
2021/12/16 10:31:02;;;;;;;;;38.50;34.25;;;;;-147.17;100.00;50271.19;4953586;28;51150;-62
2021/12/16 10:34:00;;;;;;;;;37.50;33.75;;;;;-147.17;100.00;50263.31;4953806;28;51303;-64
2021/12/16 10:36:29;;;;;;;;;40.25;33.25;;;;;-147.17;100.00;50281.03;4937690;28;51042;-62
2021/12/16 10:39:00;;;;;;;;;37.75;34.50;;;;;-147.17;100.00;50257.41;4953738;28;51973;-62
2021/12/16 10:41:32;;;;;;;;;38.75;35.00;;;;;-147.17;100.00;50237.72;4954032;28;51038;-62
2021/12/16 10:44:13;;;;;;;;;39.50;33.00;;;;;-147.17;100.00;50298.75;4953585;28;51151;-61
2021/12/16 10:46:45;;;;;;;;;44.75;38.25;;;;;-147.17;100.00;50292.84;4941601;28;51020;-63
2021/12/16 10:49:18;;;;;;;;;39.00;34.50;;;;;-147.17;100.00;50277.09;4952272;28;51142;-61
2021/12/16 10:51:49;;;;;;;;;35.25;33.50;;;;;-147.17;100.00;50269.22;4953805;28;50898;-61
2021/12/16 10:54:21;;;;;;;;;46.50;38.50;;;;;-147.17;100.00;50253.47;4953210;28;51141;-61
2021/12/16 10:57:14;;;;;;;;;36.75;34.00;;;;;-147.17;100.00;50304.66;4949184;28;51173;-61
2021/12/16 10:59:46;;;;;;;;;40.75;35.25;;;;;-147.17;100.00;50296.78;4951950;28;51186;-62
2021/12/16 11:02:21;;;;;;;;;41.25;35.25;;;;;-147.17;100.00;50281.03;4950933;28;50994;-61
2021/12/16 11:05:15;;;;;;;;;36.25;33.00;;;;;-147.17;100.00;50296.78;4952541;28;51211;-61
2021/12/16 11:07:42;;;;;;;;;34.25;32.00;;;;;-147.17;100.00;50296.78;4952035;28;51388;-61
2021/12/16 11:10:19;;;;;;;;;35.25;32.25;;;;;-147.17;100.00;50283.00;4950696;28;52990;-63
2021/12/16 11:12:50;;;;;;;;;30.50;27.50;;;;;-147.17;100.00;50326.28;4952768;28;51968;-62
2021/12/16 11:15:28;;;;;;;;;33.25;30.75;;;;;-147.17;100.00;50320.38;4950646;28;51198;-62
2021/12/16 11:17:56;;;;;;;;;34.00;31.00;;;;;-147.17;100.00;50336.13;4952161;28;51243;-61
2021/12/16 11:20:27;;;;;;;;;32.75;31.25;;;;;-147.17;100.00;50300.72;4951838;28;51900;-62
2021/12/16 11:23:03;;;;;;;;;35.25;32.25;;;;;-147.17;100.00;50277.09;4951803;28;51036;-61
2021/12/16 11:25:48;;;;;;;;;38.25;35.50;;;;;-147.17;100.00;50296.78;4952149;28;51266;-61
2021/12/16 11:28:31;;;;;;;;;40.00;34.50;;;;;-147.17;100.00;50290.88;4950774;28;51457;-60
2021/12/16 11:31:19;;;;;;;;;32.00;31.00;;;;;-147.17;100.00;50284.97;4950126;28;52841;-62
2021/12/16 11:33:48;;;;;;;;;34.75;31.25;;;;;-147.17;100.00;50308.59;4951385;28;51069;-62
2021/12/16 11:36:18;;;;;;;;;39.75;34.25;;;;;-147.17;100.00;50284.97;4951818;28;51158;-62
2021/12/16 11:38:54;;;;;;;;;40.75;35.50;;;;;-147.17;100.00;50326.28;4950451;28;51059;-62
2021/12/16 11:41:29;;;;;;;;;38.25;35.25;;;;;-147.17;100.00;50300.72;4950688;28;51878;-61
2021/12/16 11:44:10;;;;;;;;;32.75;31.75;;;;;-147.17;100.00;50302.69;4950840;28;51112;-62
2021/12/16 11:46:55;;;;;;;;;41.25;36.00;;;;;-147.17;100.00;50296.78;4951424;28;52379;-60
2021/12/16 11:49:29;;;;;;;;;40.75;35.50;;;;;-147.17;100.00;50332.19;4944969;28;51589;-63
2021/12/16 11:52:02;;;;;;;;;37.25;34.50;;;;;-147.17;100.00;50322.34;4952543;28;51932;-62
2021/12/16 11:54:34;;;;;;;;;39.75;35.25;;;;;-147.17;100.00;50302.69;4952498;28;51011;-62
2021/12/16 11:57:23;;;;;;;;;45.25;36.75;;;;;-147.17;100.00;50304.66;4953369;28;51142;-62
2021/12/16 11:59:49;;;;;;;;;39.75;34.25;;;;;-147.17;100.00;50296.78;4953246;28;51156;-62
2021/12/16 12:02:26;;;;;;;;;41.00;37.50;;;;;-147.17;100.00;50300.72;4953188;28;51927;-62
2021/12/16 12:04:54;;;;;;;;;39.50;35.25;;;;;-147.17;100.00;50269.22;4953431;28;50986;-61
2021/12/16 12:07:19;;;;;;;;;39.25;35.25;;;;;-147.17;100.00;50304.66;4951203;28;50875;-61
2021/12/16 12:09:52;;;;;;;;;40.25;35.75;;;;;-147.17;100.00;50306.63;4952342;28;51143;-62
2021/12/16 12:12:48;;;;;;;;;40.75;35.75;;;;;-147.17;100.00;50288.91;4952248;28;51088;-63
2021/12/16 12:15:16;;;;;;;;;36.25;33.00;;;;;-147.17;100.00;50296.78;4952318;28;50969;-62
2021/12/16 12:17:52;;;;;;;;;40.25;36.00;;;;;-147.17;100.00;50296.78;4952246;28;51350;-61
2021/12/16 12:20:24;;;;;;;;;35.25;32.75;;;;;-147.17;100.00;50275.13;4952569;28;51074;-62
2021/12/16 12:22:51;;;;;;;;;38.50;35.00;;;;;-147.17;100.00;50300.72;4952414;28;51101;-62
2021/12/16 12:25:17;;;;;;;;;21.75;20.25;;;;;-147.17;100.00;50300.72;4952258;28;51113;-62
2021/12/16 12:27:42;;;;;;;;;40.00;35.50;;;;;-147.17;100.00;50332.19;4954157;28;51024;-63
2021/12/16 12:30:09;;;;;;;;;38.25;34.50;;;;;-147.17;100.00;50332.19;4955754;28;51161;-62
2021/12/16 12:32:41;;;;;;;;;39.75;35.50;;;;;-147.17;100.00;50300.72;4955141;28;52758;-62
2021/12/16 12:35:17;;;;;;;;;35.75;33.75;;;;;-147.17;100.00;50302.69;4955801;28;51444;-61
2021/12/16 12:37:47;;;;;;;;;45.25;39.00;;;;;-147.17;100.00;50269.22;4954156;28;51134;-62
2021/12/16 12:40:19;;;;;;;;;40.25;36.00;;;;;-147.17;100.00;50292.84;4952747;28;51395;-61
2021/12/16 12:42:46;;;;;;;;;46.25;39.50;;;;;-147.17;100.00;50302.69;4953823;28;51077;-61
2021/12/16 12:45:15;;;;;;;;;34.00;32.75;;;;;-147.17;100.00;50279.06;4952401;28;51444;-61
2021/12/16 12:47:43;;;;;;;;;36.25;34.25;;;;;-147.17;100.00;50306.63;4939976;28;51085;-61
2021/12/16 12:50:14;;;;;;;;;38.75;34.00;;;;;-147.17;100.00;50284.97;4954492;28;51210;-62
2021/12/16 12:52:40;;;;;;;;;41.00;35.75;;;;;-147.17;100.00;50304.66;4953728;28;52958;-61
2021/12/16 12:55:12;;;;;;;;;37.25;33.00;;;;;-147.17;100.00;50316.44;4954438;28;51172;-62
2021/12/16 12:57:42;;;;;;;;;29.75;29.00;;;;;-147.17;100.00;50322.34;4939601;28;51113;-62
2021/12/16 13:00:25;;;;;;;;;35.75;33.00;;;;;-147.17;100.00;50296.78;4954262;28;51352;-61
2021/12/16 13:03:11;;;;;;;;;29.75;26.75;;;;;-147.17;100.00;50292.84;4953383;28;52400;-62
2021/12/16 13:05:36;;;;;;;;;34.50;33.00;;;;;-147.17;100.00;50275.13;4953531;28;52537;-62
2021/12/16 13:08:05;;;;;;;;;40.50;33.00;;;;;-147.17;100.00;50302.69;4953727;28;51360;-63
2021/12/16 13:10:42;;;;;;;;;40.25;35.25;;;;;-147.17;100.00;50326.28;4954248;28;51358;-63
2021/12/16 13:13:31;;;;;;;;;40.50;34.75;;;;;-147.17;100.00;50320.38;4953347;28;51039;-61
2021/12/16 13:25:04;;;;;;;;;26.25;25.00;;;;;-147.17;100.00;50304.66;4954187;28;50940;-62
2021/12/16 13:27:33;;;;;;;;;30.75;29.50;;;;;-147.17;100.00;50340.06;4954496;28;51205;-63
2021/12/16 13:32:41;;;;;;;;;34.25;32.50;;;;;-147.17;100.00;50332.19;4955067;28;51104;-61
2021/12/16 13:37:51;;;;;;;;;28.00;26.00;;;;;-147.17;100.00;50338.09;4954533;28;50977;-62
2021/12/16 13:40:30;;;;;;;;;34.00;33.00;;;;;-147.17;100.00;50340.06;4955108;28;50964;-62
2021/12/16 13:42:59;;;;;;;;;32.50;30.50;;;;;-147.17;100.00;50310.56;4955375;28;51239;-62
2021/12/16 13:45:32;;;;;;;;;32.00;30.25;;;;;-147.17;100.00;50294.81;4952965;28;51111;-62
2021/12/16 14:05:15;;;;;;;;;32.50;28.50;;;;;-147.17;100.00;50281.03;4954667;28;50972;-62
2021/12/16 14:07:58;;;;;;;;;31.75;30.25;;;;;-147.17;100.00;50351.88;4953490;28;52235;-61
2021/12/16 14:10:42;;;;;;;;;24.50;22.75;;;;;-147.17;100.00;50349.91;4954425;28;50957;-61